Portada
METAR-TAF:

METAR-TAF

Aeroports :

Funchal, Madeira, Portugal

latitud: 32-41-52N, longitud: 016-46-28W, altitud: 59 m

Observació

L'informe es va fer fa 16 minuts, a les 19:30 UTC
Vent 2 kt amb direcció variable
Temperatura 21°C
Humitat 69%
Pressió 1019 hPa
Visibilitat 10 km o més
Escasses núvols a una alçada de 1600 ft

METAR: LPMA 151930Z VRB02KT 9999 FEW016 21/15 Q1019

Hora: 20:46 (19:46 UTC)

Pronòstic

L'informe es va fer fa 2 hores i 46 minuts, a les 17:00 UTC
Pronòstic vàlid del 15 a les 18 UTC al 16 a les 18 UTC
Vent 5 kt amb direcció variable
Visibilitat 10 km o més
Núvols disperses a una alçada de 1500 ft
Núvols disperses a una alçada de 3000 ft
Probabilitat 40% :
Temporalment
l' 15 a les 22 UTC al 16 a les 08 UTC
Vent 8 kt del Nord/Nord-Oest
Cel ennuvolat a una alçada de 1500 ft
Evolucionant progressivament
l' 16 a les 08 UTC al 16 a les 11 UTC
Vent 10 kt del Nord

TAF: LPMA 151700Z 1518/1618 VRB05KT 9999 SCT015 SCT030 PROB40 TEMPO 1522/1608 34008KT BKN015 BECMG 1608/1611 01010KT

Observacions i pronòstics meteorològics de més de 4000 aeroports (METAR i TAF).

Les estacions disponibles són els punts grocs i vermells al mapa.

Posi el ratolí al punt desitjat per veure el nom de l'estació.

Feu clic per veure les observacions i els pronòstics meteorològics.

Per canviar el mapa: feu clic els botons verds amb una creu de color negre per apropar; al botó verd amb un guió per allunyar la imatge; o en les fletxes verdes per a mapes adjacents.


METAR-TAF: